sensor_id;sensor_type;location;lat;lon;timestamp;pressure;altitude;pressure_sealevel;temperature;humidity
64402;BME280;50724;42.376;23.768;2024-02-28T00:03:10;93515.38;;;4.64;100.00
64402;BME280;50724;42.376;23.768;2024-02-28T00:06:11;93521.63;;;4.62;100.00
64402;BME280;50724;42.376;23.768;2024-02-28T00:09:12;93522.34;;;4.64;100.00
64402;BME280;50724;42.376;23.768;2024-02-28T00:12:16;93524.72;;;4.56;100.00
64402;BME280;50724;42.376;23.768;2024-02-28T00:15:16;93522.59;;;4.61;100.00
64402;BME280;50724;42.376;23.768;2024-02-28T00:18:17;93528.00;;;4.58;100.00
64402;BME280;50724;42.376;23.768;2024-02-28T00:21:18;93523.31;;;4.52;100.00
64402;BME280;50724;42.376;23.768;2024-02-28T00:24:18;93523.91;;;4.44;100.00
64402;BME280;50724;42.376;23.768;2024-02-28T00:27:19;93523.34;;;4.41;100.00
64402;BME280;50724;42.376;23.768;2024-02-28T00:30:19;93528.47;;;4.63;100.00
64402;BME280;50724;42.376;23.768;2024-02-28T00:33:20;93526.13;;;4.49;100.00
64402;BME280;50724;42.376;23.768;2024-02-28T00:36:20;93524.16;;;4.30;100.00
64402;BME280;50724;42.376;23.768;2024-02-28T00:39:21;93527.78;;;4.28;100.00
64402;BME280;50724;42.376;23.768;2024-02-28T00:42:21;93527.69;;;4.40;100.00
64402;BME280;50724;42.376;23.768;2024-02-28T00:45:22;93526.25;;;4.36;100.00
64402;BME280;50724;42.376;23.768;2024-02-28T00:48:22;93526.50;;;4.33;100.00
64402;BME280;50724;42.376;23.768;2024-02-28T00:51:23;93523.78;;;4.35;100.00
64402;BME280;50724;42.376;23.768;2024-02-28T00:54:23;93526.38;;;4.35;100.00
64402;BME280;50724;42.376;23.768;2024-02-28T00:57:25;93526.59;;;4.32;100.00
64402;BME280;50724;42.376;23.768;2024-02-28T01:00:34;93518.03;;;4.31;100.00
64402;BME280;50724;42.376;23.768;2024-02-28T01:03:35;93518.72;;;4.44;100.00
64402;BME280;50724;42.376;23.768;2024-02-28T01:06:35;93519.31;;;4.48;100.00
64402;BME280;50724;42.376;23.768;2024-02-28T01:09:37;93510.94;;;4.44;100.00
64402;BME280;50724;42.376;23.768;2024-02-28T01:12:37;93530.94;;;4.53;100.00
64402;BME280;50724;42.376;23.768;2024-02-28T01:15:41;93522.72;;;4.59;100.00
64402;BME280;50724;42.376;23.768;2024-02-28T01:18:42;93534.09;;;4.68;100.00
64402;BME280;50724;42.376;23.768;2024-02-28T01:21:43;93531.59;;;4.88;100.00
64402;BME280;50724;42.376;23.768;2024-02-28T01:24:43;93533.44;;;4.98;100.00
64402;BME280;50724;42.376;23.768;2024-02-28T01:27:44;93539.31;;;5.11;100.00
64402;BME280;50724;42.376;23.768;2024-02-28T01:30:44;93542.16;;;5.28;100.00
64402;BME280;50724;42.376;23.768;2024-02-28T01:33:45;93545.84;;;5.26;100.00
64402;BME280;50724;42.376;23.768;2024-02-28T01:36:45;93549.94;;;5.28;100.00
64402;BME280;50724;42.376;23.768;2024-02-28T01:39:45;93549.28;;;5.47;100.00
64402;BME280;50724;42.376;23.768;2024-02-28T01:42:46;93547.59;;;5.57;100.00
64402;BME280;50724;42.376;23.768;2024-02-28T01:45:46;93546.91;;;5.55;100.00
64402;BME280;50724;42.376;23.768;2024-02-28T01:48:46;93549.13;;;5.60;100.00
64402;BME280;50724;42.376;23.768;2024-02-28T01:51:56;93553.78;;;5.66;100.00
64402;BME280;50724;42.376;23.768;2024-02-28T01:54:57;93544.75;;;5.81;100.00
64402;BME280;50724;42.376;23.768;2024-02-28T01:57:58;93540.78;;;5.77;100.00
64402;BME280;50724;42.376;23.768;2024-02-28T02:00:58;93543.78;;;5.82;100.00
64402;BME280;50724;42.376;23.768;2024-02-28T02:04:08;93539.81;;;5.78;100.00
64402;BME280;50724;42.376;23.768;2024-02-28T02:07:08;93539.94;;;5.76;100.00
64402;BME280;50724;42.376;23.768;2024-02-28T02:10:09;93538.13;;;5.67;100.00
64402;BME280;50724;42.376;23.768;2024-02-28T02:13:12;93537.59;;;5.73;100.00
64402;BME280;50724;42.376;23.768;2024-02-28T02:16:12;93545.25;;;5.75;100.00
64402;BME280;50724;42.376;23.768;2024-02-28T02:19:13;93547.66;;;6.08;100.00
64402;BME280;50724;42.376;23.768;2024-02-28T02:22:13;93551.81;;;5.90;100.00
64402;BME280;50724;42.376;23.768;2024-02-28T02:25:14;93550.78;;;5.81;100.00
64402;BME280;50724;42.376;23.768;2024-02-28T02:28:15;93552.66;;;5.79;100.00
64402;BME280;50724;42.376;23.768;2024-02-28T02:31:16;93550.88;;;5.80;100.00
64402;BME280;50724;42.376;23.768;2024-02-28T02:34:16;93549.25;;;5.99;100.00
64402;BME280;50724;42.376;23.768;2024-02-28T02:37:16;93552.50;;;5.92;100.00
64402;BME280;50724;42.376;23.768;2024-02-28T02:40:17;93545.09;;;5.87;100.00
64402;BME280;50724;42.376;23.768;2024-02-28T02:43:17;93548.66;;;5.75;100.00
64402;BME280;50724;42.376;23.768;2024-02-28T02:46:18;93551.63;;;5.71;100.00
64402;BME280;50724;42.376;23.768;2024-02-28T02:49:18;93549.63;;;5.74;100.00
64402;BME280;50724;42.376;23.768;2024-02-28T02:52:19;93555.50;;;5.76;100.00
64402;BME280;50724;42.376;23.768;2024-02-28T02:55:19;93559.63;;;5.79;100.00
64402;BME280;50724;42.376;23.768;2024-02-28T02:58:20;93562.34;;;5.77;100.00
64402;BME280;50724;42.376;23.768;2024-02-28T03:01:20;93560.16;;;5.93;100.00
64402;BME280;50724;42.376;23.768;2024-02-28T03:04:20;93562.63;;;5.95;100.00
64402;BME280;50724;42.376;23.768;2024-02-28T03:07:21;93556.84;;;5.91;100.00
64402;BME280;50724;42.376;23.768;2024-02-28T03:10:22;93552.50;;;5.92;100.00
64402;BME280;50724;42.376;23.768;2024-02-28T03:13:23;93551.81;;;5.90;100.00
64402;BME280;50724;42.376;23.768;2024-02-28T03:16:23;93552.41;;;6.03;100.00
64402;BME280;50724;42.376;23.768;2024-02-28T03:19:24;93554.31;;;6.01;100.00
64402;BME280;50724;42.376;23.768;2024-02-28T03:22:24;93565.16;;;6.06;100.00
64402;BME280;50724;42.376;23.768;2024-02-28T03:25:25;93556.66;;;6.04;100.00
64402;BME280;50724;42.376;23.768;2024-02-28T03:28:26;93559.50;;;6.01;100.00
64402;BME280;50724;42.376;23.768;2024-02-28T03:31:27;93555.78;;;5.94;100.00
64402;BME280;50724;42.376;23.768;2024-02-28T03:34:27;93561.66;;;5.96;100.00
64402;BME280;50724;42.376;23.768;2024-02-28T03:37:28;93564.84;;;5.99;100.00
64402;BME280;50724;42.376;23.768;2024-02-28T03:40:36;93566.88;;;6.16;100.00
64402;BME280;50724;42.376;23.768;2024-02-28T03:43:37;93561.84;;;6.24;100.00
64402;BME280;50724;42.376;23.768;2024-02-28T03:46:37;93562.72;;;6.35;100.00
64402;BME280;50724;42.376;23.768;2024-02-28T03:49:38;93564.38;;;6.45;100.00
64402;BME280;50724;42.376;23.768;2024-02-28T03:52:38;93561.88;;;6.34;100.00
64402;BME280;50724;42.376;23.768;2024-02-28T03:55:39;93565.94;;;6.57;100.00
64402;BME280;50724;42.376;23.768;2024-02-28T03:58:40;93565.94;;;6.57;100.00
64402;BME280;50724;42.376;23.768;2024-02-28T04:01:40;93565.78;;;6.49;100.00
64402;BME280;50724;42.376;23.768;2024-02-28T04:04:41;93569.56;;;6.45;100.00
64402;BME280;50724;42.376;23.768;2024-02-28T04:07:41;93576.19;;;6.29;100.00
64402;BME280;50724;42.376;23.768;2024-02-28T04:10:42;93566.97;;;6.15;100.00
64402;BME280;50724;42.376;23.768;2024-02-28T04:13:42;93569.00;;;6.11;100.00
64402;BME280;50724;42.376;23.768;2024-02-28T04:16:43;93563.00;;;6.11;100.00
64402;BME280;50724;42.376;23.768;2024-02-28T04:19:44;93561.50;;;5.88;100.00
64402;BME280;50724;42.376;23.768;2024-02-28T04:22:44;93559.34;;;5.93;100.00
64402;BME280;50724;42.376;23.768;2024-02-28T04:25:45;93557.25;;;5.87;100.00
64402;BME280;50724;42.376;23.768;2024-02-28T04:28:45;93553.59;;;5.78;100.00
64402;BME280;50724;42.376;23.768;2024-02-28T04:31:45;93551.56;;;5.82;100.00
64402;BME280;50724;42.376;23.768;2024-02-28T04:34:46;93550.63;;;5.83;100.00
64402;BME280;50724;42.376;23.768;2024-02-28T04:37:46;93549.66;;;5.95;100.00
64402;BME280;50724;42.376;23.768;2024-02-28T04:40:47;93548.25;;;5.91;100.00
64402;BME280;50724;42.376;23.768;2024-02-28T04:43:48;93555.91;;;6.13;100.00
64402;BME280;50724;42.376;23.768;2024-02-28T04:46:48;93563.97;;;6.19;100.00
64402;BME280;50724;42.376;23.768;2024-02-28T04:49:49;93553.00;;;6.37;100.00
64402;BME280;50724;42.376;23.768;2024-02-28T04:52:49;93555.22;;;6.41;100.00
64402;BME280;50724;42.376;23.768;2024-02-28T04:55:50;93557.34;;;6.06;100.00
64402;BME280;50724;42.376;23.768;2024-02-28T04:58:50;93559.75;;;6.18;100.00
64402;BME280;50724;42.376;23.768;2024-02-28T05:01:51;93558.16;;;6.27;100.00
64402;BME280;50724;42.376;23.768;2024-02-28T05:04:52;93569.00;;;6.11;100.00
64402;BME280;50724;42.376;23.768;2024-02-28T05:07:52;93570.13;;;5.98;100.00
64402;BME280;50724;42.376;23.768;2024-02-28T05:10:53;93569.06;;;6.21;100.00
64402;BME280;50724;42.376;23.768;2024-02-28T05:13:53;93572.59;;;6.20;100.00
64402;BME280;50724;42.376;23.768;2024-02-28T05:16:53;93574.84;;;6.04;100.00
64402;BME280;50724;42.376;23.768;2024-02-28T05:19:54;93585.47;;;6.01;100.00
64402;BME280;50724;42.376;23.768;2024-02-28T05:22:54;93588.06;;;6.01;100.00
64402;BME280;50724;42.376;23.768;2024-02-28T05:25:55;93591.28;;;5.93;100.00
64402;BME280;50724;42.376;23.768;2024-02-28T05:28:55;93596.16;;;5.87;100.00
64402;BME280;50724;42.376;23.768;2024-02-28T05:31:56;93600.44;;;5.88;100.00
64402;BME280;50724;42.376;23.768;2024-02-28T05:34:56;93610.81;;;5.88;100.00
64402;BME280;50724;42.376;23.768;2024-02-28T05:37:56;93617.06;;;5.85;100.00
64402;BME280;50724;42.376;23.768;2024-02-28T05:40:57;93617.91;;;5.86;100.00
64402;BME280;50724;42.376;23.768;2024-02-28T05:43:57;93617.63;;;5.89;100.00
64402;BME280;50724;42.376;23.768;2024-02-28T05:46:58;93622.72;;;5.90;100.00
64402;BME280;50724;42.376;23.768;2024-02-28T05:49:58;93619.53;;;6.07;100.00
64402;BME280;50724;42.376;23.768;2024-02-28T05:52:59;93621.50;;;6.15;100.00
64402;BME280;50724;42.376;23.768;2024-02-28T05:55:59;93626.25;;;6.10;100.00
64402;BME280;50724;42.376;23.768;2024-02-28T05:59:00;93624.16;;;6.04;100.00
64402;BME280;50724;42.376;23.768;2024-02-28T06:02:00;93626.59;;;6.16;100.00
64402;BME280;50724;42.376;23.768;2024-02-28T06:05:00;93626.59;;;6.16;100.00
64402;BME280;50724;42.376;23.768;2024-02-28T06:08:01;93628.66;;;6.22;100.00
64402;BME280;50724;42.376;23.768;2024-02-28T06:11:10;93634.22;;;6.39;100.00
64402;BME280;50724;42.376;23.768;2024-02-28T06:14:10;93635.44;;;6.35;100.00
64402;BME280;50724;42.376;23.768;2024-02-28T06:17:20;93641.06;;;6.19;100.00
64402;BME280;50724;42.376;23.768;2024-02-28T06:20:22;93641.78;;;6.21;100.00
64402;BME280;50724;42.376;23.768;2024-02-28T06:23:23;93645.13;;;6.33;100.00
64402;BME280;50724;42.376;23.768;2024-02-28T06:26:23;93647.34;;;6.37;100.00
64402;BME280;50724;42.376;23.768;2024-02-28T06:29:35;93653.75;;;6.12;100.00
64402;BME280;50724;42.376;23.768;2024-02-28T06:32:35;93657.47;;;6.19;100.00
64402;BME280;50724;42.376;23.768;2024-02-28T06:35:36;93661.50;;;6.23;100.00
64402;BME280;50724;42.376;23.768;2024-02-28T06:38:36;93657.75;;;6.37;100.00
64402;BME280;50724;42.376;23.768;2024-02-28T06:41:37;93660.19;;;6.39;100.00
64402;BME280;50724;42.376;23.768;2024-02-28T06:44:37;93655.53;;;6.33;100.00
64402;BME280;50724;42.376;23.768;2024-02-28T06:47:38;93664.06;;;6.44;100.00
64402;BME280;50724;42.376;23.768;2024-02-28T06:50:39;93665.00;;;6.64;100.00
64402;BME280;50724;42.376;23.768;2024-02-28T06:53:39;93660.72;;;6.83;100.00
64402;BME280;50724;42.376;23.768;2024-02-28T06:56:40;93659.53;;;7.37;100.00
64402;BME280;50724;42.376;23.768;2024-02-28T06:59:41;93654.31;;;7.37;100.00
64402;BME280;50724;42.376;23.768;2024-02-28T07:02:41;93660.78;;;7.42;100.00
64402;BME280;50724;42.376;23.768;2024-02-28T07:05:42;93665.19;;;7.61;100.00
64402;BME280;50724;42.376;23.768;2024-02-28T07:08:42;93664.25;;;7.72;100.00
64402;BME280;50724;42.376;23.768;2024-02-28T07:11:43;93665.84;;;7.44;100.00
64402;BME280;50724;42.376;23.768;2024-02-28T07:14:43;93670.25;;;7.13;100.00
64402;BME280;50724;42.376;23.768;2024-02-28T07:17:43;93661.56;;;7.24;100.00
64402;BME280;50724;42.376;23.768;2024-02-28T07:20:44;93663.09;;;7.36;100.00
64402;BME280;50724;42.376;23.768;2024-02-28T07:23:44;93666.13;;;7.60;100.00
64402;BME280;50724;42.376;23.768;2024-02-28T07:26:46;93670.72;;;7.96;100.00
64402;BME280;50724;42.376;23.768;2024-02-28T07:29:46;93674.69;;;8.19;100.00
64402;BME280;50724;42.376;23.768;2024-02-28T07:32:46;93669.22;;;8.13;100.00
64402;BME280;50724;42.376;23.768;2024-02-28T07:35:48;93665.91;;;8.40;100.00
64402;BME280;50724;42.376;23.768;2024-02-28T07:38:48;93665.63;;;8.43;100.00
64402;BME280;50724;42.376;23.768;2024-02-28T07:41:49;93676.31;;;8.59;100.00
64402;BME280;50724;42.376;23.768;2024-02-28T07:44:50;93678.22;;;8.66;100.00
64402;BME280;50724;42.376;23.768;2024-02-28T07:47:53;93676.59;;;8.56;100.00
64402;BME280;50724;42.376;23.768;2024-02-28T07:50:54;93681.13;;;8.44;100.00
64402;BME280;50724;42.376;23.768;2024-02-28T07:53:57;93678.09;;;8.58;100.00
64402;BME280;50724;42.376;23.768;2024-02-28T07:56:58;93678.41;;;8.36;100.00
64402;BME280;50724;42.376;23.768;2024-02-28T07:59:59;93676.72;;;8.64;100.00
64402;BME280;50724;42.376;23.768;2024-02-28T08:03:00;93674.09;;;8.73;100.00
64402;BME280;50724;42.376;23.768;2024-02-28T08:06:01;93677.22;;;8.77;100.00
64402;BME280;50724;42.376;23.768;2024-02-28T08:09:01;93675.41;;;8.96;100.00
64402;BME280;50724;42.376;23.768;2024-02-28T08:12:04;93670.00;;;9.08;100.00
64402;BME280;50724;42.376;23.768;2024-02-28T08:15:05;93668.66;;;9.31;100.00
64402;BME280;50724;42.376;23.768;2024-02-28T08:18:05;93664.22;;;9.68;100.00
64402;BME280;50724;42.376;23.768;2024-02-28T08:21:09;93679.41;;;9.55;100.00
64402;BME280;50724;42.376;23.768;2024-02-28T08:24:09;93673.72;;;9.87;100.00
64402;BME280;50724;42.376;23.768;2024-02-28T08:27:10;93674.94;;;10.10;100.00
64402;BME280;50724;42.376;23.768;2024-02-28T08:30:11;93670.22;;;10.49;100.00
64402;BME280;50724;42.376;23.768;2024-02-28T08:33:11;93667.88;;;10.63;100.00
64402;BME280;50724;42.376;23.768;2024-02-28T08:36:12;93662.72;;;10.71;100.00
64402;BME280;50724;42.376;23.768;2024-02-28T08:39:12;93666.56;;;10.85;100.00
64402;BME280;50724;42.376;23.768;2024-02-28T08:42:13;93663.72;;;11.30;100.00
64402;BME280;50724;42.376;23.768;2024-02-28T08:45:13;93663.31;;;11.50;100.00
64402;BME280;50724;42.376;23.768;2024-02-28T08:48:14;93656.47;;;11.57;100.00
64402;BME280;50724;42.376;23.768;2024-02-28T08:51:14;93659.50;;;11.79;100.00
64402;BME280;50724;42.376;23.768;2024-02-28T08:54:15;93662.97;;;11.79;100.00
64402;BME280;50724;42.376;23.768;2024-02-28T08:57:15;93660.28;;;11.37;100.00
64402;BME280;50724;42.376;23.768;2024-02-28T09:00:16;93659.66;;;11.10;100.00
64402;BME280;50724;42.376;23.768;2024-02-28T09:03:17;93660.63;;;11.34;100.00
64402;BME280;50724;42.376;23.768;2024-02-28T09:06:19;93662.00;;;11.54;100.00
64402;BME280;50724;42.376;23.768;2024-02-28T09:09:20;93659.75;;;11.59;100.00
64402;BME280;50724;42.376;23.768;2024-02-28T09:12:21;93659.09;;;12.07;100.00
64402;BME280;50724;42.376;23.768;2024-02-28T09:15:21;93657.81;;;12.43;99.23
64402;BME280;50724;42.376;23.768;2024-02-28T09:18:22;93654.19;;;12.77;90.42
64402;BME280;50724;42.376;23.768;2024-02-28T09:21:23;93651.25;;;12.80;90.57
64402;BME280;50724;42.376;23.768;2024-02-28T09:24:24;93650.91;;;12.91;90.49
64402;BME280;50724;42.376;23.768;2024-02-28T09:27:24;93655.50;;;12.89;91.27
64402;BME280;50724;42.376;23.768;2024-02-28T09:30:26;93655.00;;;13.09;87.36
64402;BME280;50724;42.376;23.768;2024-02-28T09:33:26;93650.03;;;13.23;86.27
64402;BME280;50724;42.376;23.768;2024-02-28T09:36:27;93649.59;;;12.79;85.42
64402;BME280;50724;42.376;23.768;2024-02-28T09:39:27;93649.41;;;13.04;89.27
64402;BME280;50724;42.376;23.768;2024-02-28T09:42:28;93643.47;;;13.27;86.76
64402;BME280;50724;42.376;23.768;2024-02-28T09:45:30;93641.03;;;13.17;86.11
64402;BME280;50724;42.376;23.768;2024-02-28T09:48:30;93642.84;;;13.17;88.28
64402;BME280;50724;42.376;23.768;2024-02-28T09:51:35;93642.00;;;13.16;87.10
64402;BME280;50724;42.376;23.768;2024-02-28T09:54:35;93644.94;;;13.21;86.07
64402;BME280;50724;42.376;23.768;2024-02-28T09:57:36;93639.25;;;12.85;86.51
64402;BME280;50724;42.376;23.768;2024-02-28T10:00:37;93640.56;;;12.73;89.45
64402;BME280;50724;42.376;23.768;2024-02-28T10:03:39;93637.91;;;12.97;89.67
64402;BME280;50724;42.376;23.768;2024-02-28T10:06:42;93640.28;;;12.68;91.70
64402;BME280;50724;42.376;23.768;2024-02-28T10:09:43;93633.03;;;12.86;90.82
64402;BME280;50724;42.376;23.768;2024-02-28T10:12:44;93634.00;;;12.93;89.42
64402;BME280;50724;42.376;23.768;2024-02-28T10:15:45;93631.00;;;13.04;88.78
64402;BME280;50724;42.376;23.768;2024-02-28T10:18:46;93614.91;;;13.16;87.66
64402;BME280;50724;42.376;23.768;2024-02-28T10:21:47;93623.94;;;13.29;85.80
64402;BME280;50724;42.376;23.768;2024-02-28T10:24:47;93625.56;;;13.30;85.22
64402;BME280;50724;42.376;23.768;2024-02-28T10:27:48;93611.06;;;13.42;83.84
64402;BME280;50724;42.376;23.768;2024-02-28T10:30:48;93617.53;;;13.16;85.26
64402;BME280;50724;42.376;23.768;2024-02-28T10:33:49;93617.59;;;13.46;85.21
64402;BME280;50724;42.376;23.768;2024-02-28T10:36:50;93606.53;;;13.20;85.24
64402;BME280;50724;42.376;23.768;2024-02-28T10:39:51;93607.84;;;13.63;84.45
64402;BME280;50724;42.376;23.768;2024-02-28T10:43:03;93610.94;;;13.97;80.90
64402;BME280;50724;42.376;23.768;2024-02-28T10:46:06;93606.53;;;14.20;79.56
64402;BME280;50724;42.376;23.768;2024-02-28T10:49:11;93605.34;;;14.68;76.67
64402;BME280;50724;42.376;23.768;2024-02-28T10:52:12;93594.19;;;14.81;75.20
64402;BME280;50724;42.376;23.768;2024-02-28T10:55:22;93588.91;;;14.66;72.98
64402;BME280;50724;42.376;23.768;2024-02-28T10:58:35;93584.38;;;14.37;74.82
64402;BME280;50724;42.376;23.768;2024-02-28T11:01:40;93584.16;;;14.62;75.21
64402;BME280;50724;42.376;23.768;2024-02-28T11:04:44;93582.31;;;14.25;75.30
64402;BME280;50724;42.376;23.768;2024-02-28T11:07:44;93577.81;;;14.33;74.91
64402;BME280;50724;42.376;23.768;2024-02-28T11:10:45;93573.84;;;14.37;75.06
64402;BME280;50724;42.376;23.768;2024-02-28T11:13:58;93572.72;;;14.55;74.70
64402;BME280;50724;42.376;23.768;2024-02-28T11:17:05;93562.13;;;14.77;74.61
64402;BME280;50724;42.376;23.768;2024-02-28T11:20:14;93561.22;;;14.85;74.67
64402;BME280;50724;42.376;23.768;2024-02-28T11:23:17;93563.31;;;14.89;75.79
64402;BME280;50724;42.376;23.768;2024-02-28T11:26:18;93563.03;;;14.84;74.74
64402;BME280;50724;42.376;23.768;2024-02-28T11:29:25;93559.69;;;14.90;74.61
64402;BME280;50724;42.376;23.768;2024-02-28T11:32:26;93562.22;;;14.98;72.29
64402;BME280;50724;42.376;23.768;2024-02-28T11:35:26;93554.41;;;15.20;72.45
64402;BME280;50724;42.376;23.768;2024-02-28T11:38:28;93547.63;;;15.10;71.68
64402;BME280;50724;42.376;23.768;2024-02-28T11:41:28;93548.34;;;14.90;72.97
64402;BME280;50724;42.376;23.768;2024-02-28T11:44:29;93540.34;;;15.27;72.79
64402;BME280;50724;42.376;23.768;2024-02-28T11:47:29;93535.63;;;15.52;72.11
64402;BME280;50724;42.376;23.768;2024-02-28T11:50:30;93543.34;;;14.95;73.40
64402;BME280;50724;42.376;23.768;2024-02-28T11:53:30;93539.34;;;15.28;72.16
64402;BME280;50724;42.376;23.768;2024-02-28T11:56:31;93534.34;;;15.33;73.81
64402;BME280;50724;42.376;23.768;2024-02-28T11:59:31;93536.38;;;15.17;73.67
64402;BME280;50724;42.376;23.768;2024-02-28T12:02:32;93529.00;;;14.97;73.68
64402;BME280;50724;42.376;23.768;2024-02-28T12:05:32;93521.72;;;14.99;74.64
64402;BME280;50724;42.376;23.768;2024-02-28T12:08:33;93523.81;;;15.04;73.70
64402;BME280;50724;42.376;23.768;2024-02-28T12:11:42;93515.00;;;14.97;72.05
64402;BME280;50724;42.376;23.768;2024-02-28T12:14:43;93512.94;;;14.92;73.24
64402;BME280;50724;42.376;23.768;2024-02-28T12:17:43;93508.75;;;14.83;72.09
64402;BME280;50724;42.376;23.768;2024-02-28T12:20:44;93512.81;;;14.71;71.76
64402;BME280;50724;42.376;23.768;2024-02-28T12:23:46;93514.53;;;14.50;72.89
64402;BME280;50724;42.376;23.768;2024-02-28T12:26:48;93510.59;;;14.31;73.04
64402;BME280;50724;42.376;23.768;2024-02-28T12:29:48;93504.34;;;14.32;74.00
64402;BME280;50724;42.376;23.768;2024-02-28T12:32:49;93497.66;;;14.44;72.94
64402;BME280;50724;42.376;23.768;2024-02-28T12:35:49;93503.19;;;14.64;71.67
64402;BME280;50724;42.376;23.768;2024-02-28T12:38:50;93500.00;;;14.68;71.23
64402;BME280;50724;42.376;23.768;2024-02-28T12:41:51;93499.09;;;14.61;71.19
64402;BME280;50724;42.376;23.768;2024-02-28T12:44:51;93490.22;;;14.91;70.58
64402;BME280;50724;42.376;23.768;2024-02-28T12:47:52;93494.66;;;14.62;71.28
64402;BME280;50724;42.376;23.768;2024-02-28T12:50:54;93500.00;;;14.68;70.75
64402;BME280;50724;42.376;23.768;2024-02-28T12:53:54;93493.66;;;14.77;71.02
64402;BME280;50724;42.376;23.768;2024-02-28T12:56:56;93498.75;;;14.93;69.79
64402;BME280;50724;42.376;23.768;2024-02-28T12:59:56;93485.66;;;14.71;70.79
64402;BME280;50724;42.376;23.768;2024-02-28T13:02:57;93501.91;;;14.89;70.13
64402;BME280;50724;42.376;23.768;2024-02-28T13:05:57;93501.84;;;14.97;70.23
64402;BME280;50724;42.376;23.768;2024-02-28T13:08:58;93494.47;;;14.78;71.08
64402;BME280;50724;42.376;23.768;2024-02-28T13:11:58;93497.84;;;14.57;71.39
64402;BME280;50724;42.376;23.768;2024-02-28T13:14:59;93503.56;;;14.46;71.58
64402;BME280;50724;42.376;23.768;2024-02-28T13:18:00;93504.03;;;14.27;72.88
64402;BME280;50724;42.376;23.768;2024-02-28T13:21:02;93511.28;;;14.25;72.89
64402;BME280;50724;42.376;23.768;2024-02-28T13:24:05;93509.72;;;14.16;72.69
64402;BME280;50724;42.376;23.768;2024-02-28T13:27:07;93506.69;;;14.04;71.60
64402;BME280;50724;42.376;23.768;2024-02-28T13:30:09;93502.97;;;13.76;72.34
64402;BME280;50724;42.376;23.768;2024-02-28T13:33:10;93501.44;;;13.59;73.59
64402;BME280;50724;42.376;23.768;2024-02-28T13:36:10;93505.75;;;13.74;73.26
64402;BME280;50724;42.376;23.768;2024-02-28T13:39:11;93504.25;;;13.80;73.60
64402;BME280;50724;42.376;23.768;2024-02-28T13:42:12;93496.50;;;14.01;71.57
64402;BME280;50724;42.376;23.768;2024-02-28T13:45:13;93488.53;;;13.95;72.18
64402;BME280;50724;42.376;23.768;2024-02-28T13:48:17;93492.59;;;13.97;71.29
64402;BME280;50724;42.376;23.768;2024-02-28T13:51:18;93500.13;;;14.00;70.35
64402;BME280;50724;42.376;23.768;2024-02-28T13:54:18;93488.38;;;13.88;71.32
64402;BME280;50724;42.376;23.768;2024-02-28T13:57:19;93493.34;;;14.06;70.51
64402;BME280;50724;42.376;23.768;2024-02-28T14:00:19;93492.66;;;13.89;71.65
64402;BME280;50724;42.376;23.768;2024-02-28T14:03:20;93488.47;;;13.80;71.72
64402;BME280;50724;42.376;23.768;2024-02-28T14:06:21;93496.94;;;13.90;71.57
64402;BME280;50724;42.376;23.768;2024-02-28T14:09:21;93494.69;;;13.56;72.38
64402;BME280;50724;42.376;23.768;2024-02-28T14:12:22;93502.63;;;13.48;72.09
64402;BME280;50724;42.376;23.768;2024-02-28T14:15:22;93499.88;;;13.11;73.73
64402;BME280;50724;42.376;23.768;2024-02-28T14:18:22;93508.19;;;12.76;74.71
64402;BME280;50724;42.376;23.768;2024-02-28T14:21:23;93515.44;;;12.66;75.72
64402;BME280;50724;42.376;23.768;2024-02-28T14:24:24;93506.56;;;12.75;75.15
64402;BME280;50724;42.376;23.768;2024-02-28T14:27:25;93510.53;;;12.63;75.52
64402;BME280;50724;42.376;23.768;2024-02-28T14:30:30;93514.16;;;12.46;76.44
64402;BME280;50724;42.376;23.768;2024-02-28T14:33:30;93525.69;;;12.20;77.94
64402;BME280;50724;42.376;23.768;2024-02-28T14:36:31;93519.44;;;12.29;77.85
64402;BME280;50724;42.376;23.768;2024-02-28T14:39:32;93514.41;;;12.12;79.09
64402;BME280;50724;42.376;23.768;2024-02-28T14:42:32;93519.31;;;11.99;79.62
64402;BME280;50724;42.376;23.768;2024-02-28T14:45:33;93520.31;;;11.98;80.01
64402;BME280;50724;42.376;23.768;2024-02-28T14:48:34;93522.41;;;12.10;79.54
64402;BME280;50724;42.376;23.768;2024-02-28T14:51:34;93512.91;;;12.09;78.91
64402;BME280;50724;42.376;23.768;2024-02-28T14:54:35;93519.47;;;11.97;80.24
64402;BME280;50724;42.376;23.768;2024-02-28T14:57:39;93513.06;;;12.16;80.16
64402;BME280;50724;42.376;23.768;2024-02-28T15:00:40;93510.13;;;12.03;80.04
64402;BME280;50724;42.376;23.768;2024-02-28T15:03:41;93508.47;;;11.94;80.01
64402;BME280;50724;42.376;23.768;2024-02-28T15:06:41;93514.88;;;11.83;80.87
64402;BME280;50724;42.376;23.768;2024-02-28T15:09:42;93509.81;;;11.73;81.25
64402;BME280;50724;42.376;23.768;2024-02-28T15:12:42;93511.56;;;11.65;82.21
64402;BME280;50724;42.376;23.768;2024-02-28T15:15:45;93504.53;;;11.57;83.15
64402;BME280;50724;42.376;23.768;2024-02-28T15:18:45;93514.69;;;11.60;84.02
64402;BME280;50724;42.376;23.768;2024-02-28T15:21:46;93514.53;;;11.70;83.52
64402;BME280;50724;42.376;23.768;2024-02-28T15:24:46;93524.38;;;11.76;82.71
64402;BME280;50724;42.376;23.768;2024-02-28T15:27:47;93526.34;;;11.74;81.98
64402;BME280;50724;42.376;23.768;2024-02-28T15:30:47;93527.59;;;11.46;83.98
64402;BME280;50724;42.376;23.768;2024-02-28T15:33:48;93534.94;;;11.42;83.86
64402;BME280;50724;42.376;23.768;2024-02-28T15:36:49;93540.97;;;11.35;84.80
64402;BME280;50724;42.376;23.768;2024-02-28T15:39:49;93538.31;;;11.19;85.85
64402;BME280;50724;42.376;23.768;2024-02-28T15:42:59;93538.78;;;11.06;86.36
64402;BME280;50724;42.376;23.768;2024-02-28T15:45:59;93532.59;;;10.81;87.74
64402;BME280;50724;42.376;23.768;2024-02-28T15:49:00;93544.94;;;10.63;90.06